sensor_id;sensor_type;location;lat;lon;timestamp;pressure;altitude;pressure_sealevel;temperature;humidity
42671;BME280;28283;55.426;37.756;2023-10-09T00:04:14;96822.59;;;2.08;89.41
42671;BME280;28283;55.426;37.756;2023-10-09T00:09:16;96841.16;;;2.08;89.16
42671;BME280;28283;55.426;37.756;2023-10-09T00:14:29;96846.69;;;2.06;89.28
42671;BME280;28283;55.426;37.756;2023-10-09T00:19:34;96853.19;;;2.04;88.97
42671;BME280;28283;55.426;37.756;2023-10-09T00:24:35;96862.78;;;2.05;89.79
42671;BME280;28283;55.426;37.756;2023-10-09T00:29:36;96877.03;;;1.97;89.27
42671;BME280;28283;55.426;37.756;2023-10-09T00:34:44;96869.50;;;2.01;89.47
42671;BME280;28283;55.426;37.756;2023-10-09T00:39:44;96890.94;;;1.99;89.82
42671;BME280;28283;55.426;37.756;2023-10-09T00:44:48;96905.19;;;1.98;89.35
42671;BME280;28283;55.426;37.756;2023-10-09T00:49:54;96884.19;;;2.03;89.32
42671;BME280;28283;55.426;37.756;2023-10-09T00:55:20;96912.94;;;2.06;89.14
42671;BME280;28283;55.426;37.756;2023-10-09T01:00:47;96918.63;;;2.03;89.03
42671;BME280;28283;55.426;37.756;2023-10-09T01:05:54;96920.03;;;2.06;89.00
42671;BME280;28283;55.426;37.756;2023-10-09T01:10:58;96928.41;;;2.03;89.25
42671;BME280;28283;55.426;37.756;2023-10-09T01:16:20;96946.56;;;1.99;89.58
42671;BME280;28283;55.426;37.756;2023-10-09T01:21:22;96950.44;;;2.03;89.42
42671;BME280;28283;55.426;37.756;2023-10-09T01:26:26;96964.28;;;1.99;89.38
42671;BME280;28283;55.426;37.756;2023-10-09T01:31:27;96966.94;;;2.12;89.16
42671;BME280;28283;55.426;37.756;2023-10-09T01:36:34;96978.53;;;2.11;89.65
42671;BME280;28283;55.426;37.756;2023-10-09T01:41:34;96994.25;;;2.13;89.33
42671;BME280;28283;55.426;37.756;2023-10-09T01:46:37;96994.03;;;2.01;89.59
42671;BME280;28283;55.426;37.756;2023-10-09T01:51:38;96993.03;;;2.02;89.36
42671;BME280;28283;55.426;37.756;2023-10-09T01:56:39;97018.28;;;1.91;89.88
42671;BME280;28283;55.426;37.756;2023-10-09T02:01:46;97023.59;;;1.91;89.94
42671;BME280;28283;55.426;37.756;2023-10-09T02:06:48;97016.88;;;1.88;90.19
42671;BME280;28283;55.426;37.756;2023-10-09T02:11:52;97045.81;;;1.97;89.66
42671;BME280;28283;55.426;37.756;2023-10-09T02:16:55;97026.22;;;2.04;89.84
42671;BME280;28283;55.426;37.756;2023-10-09T02:22:09;97065.78;;;2.06;90.19
42671;BME280;28283;55.426;37.756;2023-10-09T02:27:13;97034.19;;;2.11;90.14
42671;BME280;28283;55.426;37.756;2023-10-09T02:32:21;97077.19;;;2.13;90.25
42671;BME280;28283;55.426;37.756;2023-10-09T02:37:26;97092.28;;;2.13;90.61
42671;BME280;28283;55.426;37.756;2023-10-09T02:42:27;97105.97;;;2.16;90.55
42671;BME280;28283;55.426;37.756;2023-10-09T02:47:28;97119.00;;;2.31;89.56
42671;BME280;28283;55.426;37.756;2023-10-09T02:52:38;97100.25;;;2.39;88.94
42671;BME280;28283;55.426;37.756;2023-10-09T02:57:41;97132.06;;;2.33;88.89
42671;BME280;28283;55.426;37.756;2023-10-09T03:02:44;97138.19;;;2.33;89.65
42671;BME280;28283;55.426;37.756;2023-10-09T03:07:46;97139.00;;;2.47;88.13
42671;BME280;28283;55.426;37.756;2023-10-09T03:12:49;97128.41;;;2.54;87.93
42671;BME280;28283;55.426;37.756;2023-10-09T03:17:53;97141.28;;;2.57;87.21
42671;BME280;28283;55.426;37.756;2023-10-09T03:22:53;97168.59;;;2.57;87.57
42671;BME280;28283;55.426;37.756;2023-10-09T03:27:54;97178.16;;;2.58;87.13
42671;BME280;28283;55.426;37.756;2023-10-09T03:32:57;97189.59;;;2.65;87.16
42671;BME280;28283;55.426;37.756;2023-10-09T03:37:57;97193.91;;;2.66;86.87
42671;BME280;28283;55.426;37.756;2023-10-09T03:43:00;97196.53;;;2.60;87.26
42671;BME280;28283;55.426;37.756;2023-10-09T03:48:01;97208.38;;;2.71;86.56
42671;BME280;28283;55.426;37.756;2023-10-09T03:53:09;97199.19;;;2.66;86.50
42671;BME280;28283;55.426;37.756;2023-10-09T03:58:12;97203.88;;;2.58;87.83
42671;BME280;28283;55.426;37.756;2023-10-09T04:03:15;97227.38;;;2.67;87.67
42671;BME280;28283;55.426;37.756;2023-10-09T04:08:15;97232.88;;;2.66;87.52
42671;BME280;28283;55.426;37.756;2023-10-09T04:13:33;97221.03;;;2.68;87.62
42671;BME280;28283;55.426;37.756;2023-10-09T04:18:33;97255.31;;;2.70;87.30
42671;BME280;28283;55.426;37.756;2023-10-09T04:23:40;97250.22;;;2.68;87.67
42671;BME280;28283;55.426;37.756;2023-10-09T04:28:59;97262.03;;;2.73;87.45
42671;BME280;28283;55.426;37.756;2023-10-09T04:34:00;97272.47;;;2.67;87.81
42671;BME280;28283;55.426;37.756;2023-10-09T04:39:19;97287.38;;;2.75;87.46
42671;BME280;28283;55.426;37.756;2023-10-09T04:44:36;97278.38;;;2.83;86.90
42671;BME280;28283;55.426;37.756;2023-10-09T04:49:37;97259.00;;;2.76;87.44
42671;BME280;28283;55.426;37.756;2023-10-09T04:54:57;97310.84;;;2.72;87.42
42671;BME280;28283;55.426;37.756;2023-10-09T05:00:19;97303.47;;;2.74;86.92
42671;BME280;28283;55.426;37.756;2023-10-09T05:05:23;97325.09;;;2.71;87.18
42671;BME280;28283;55.426;37.756;2023-10-09T05:10:45;97320.84;;;2.70;87.47
42671;BME280;28283;55.426;37.756;2023-10-09T05:15:58;97310.44;;;2.75;86.47
42671;BME280;28283;55.426;37.756;2023-10-09T05:21:03;97341.84;;;2.64;87.28
42671;BME280;28283;55.426;37.756;2023-10-09T05:26:15;97352.63;;;2.63;87.23
42671;BME280;28283;55.426;37.756;2023-10-09T05:31:34;97304.72;;;2.71;86.45
42671;BME280;28283;55.426;37.756;2023-10-09T05:36:53;97367.75;;;2.62;86.64
42671;BME280;28283;55.426;37.756;2023-10-09T05:42:11;97347.53;;;2.61;86.74
42671;BME280;28283;55.426;37.756;2023-10-09T05:47:18;97375.09;;;2.60;87.38
42671;BME280;28283;55.426;37.756;2023-10-09T05:52:27;97378.16;;;2.64;87.55
42671;BME280;28283;55.426;37.756;2023-10-09T05:57:38;97403.47;;;2.66;86.63
42671;BME280;28283;55.426;37.756;2023-10-09T06:02:45;97402.47;;;2.74;87.20
42671;BME280;28283;55.426;37.756;2023-10-09T06:08:04;97414.09;;;2.80;87.03
42671;BME280;28283;55.426;37.756;2023-10-09T06:13:07;97446.97;;;2.79;86.53
42671;BME280;28283;55.426;37.756;2023-10-09T06:18:20;97431.09;;;2.85;86.57
42671;BME280;28283;55.426;37.756;2023-10-09T06:23:26;97446.00;;;2.93;86.04
42671;BME280;28283;55.426;37.756;2023-10-09T06:28:47;97437.44;;;2.98;86.29
42671;BME280;28283;55.426;37.756;2023-10-09T06:33:51;97445.19;;;2.93;85.96
42671;BME280;28283;55.426;37.756;2023-10-09T06:39:40;97464.00;;;3.04;85.21
42671;BME280;28283;55.426;37.756;2023-10-09T06:44:59;97438.50;;;3.10;84.73
42671;BME280;28283;55.426;37.756;2023-10-09T06:49:59;97478.13;;;3.12;84.44
42671;BME280;28283;55.426;37.756;2023-10-09T06:55:27;97496.28;;;3.08;85.13
42671;BME280;28283;55.426;37.756;2023-10-09T07:00:39;97484.72;;;3.29;83.70
42671;BME280;28283;55.426;37.756;2023-10-09T07:06:12;97490.41;;;3.26;83.58
42671;BME280;28283;55.426;37.756;2023-10-09T07:11:24;97515.53;;;3.23;83.80
42671;BME280;28283;55.426;37.756;2023-10-09T07:16:47;97554.19;;;3.33;84.03
42671;BME280;28283;55.426;37.756;2023-10-09T07:21:57;97533.13;;;3.31;84.58
42671;BME280;28283;55.426;37.756;2023-10-09T07:27:06;97561.13;;;3.40;84.81
42671;BME280;28283;55.426;37.756;2023-10-09T07:32:10;97553.38;;;3.39;85.22
42671;BME280;28283;55.426;37.756;2023-10-09T07:37:20;97563.38;;;3.37;84.88
42671;BME280;28283;55.426;37.756;2023-10-09T07:42:23;97552.16;;;3.41;85.66
42671;BME280;28283;55.426;37.756;2023-10-09T07:47:46;97587.09;;;3.38;85.79
42671;BME280;28283;55.426;37.756;2023-10-09T07:53:07;97594.47;;;3.43;86.23
42671;BME280;28283;55.426;37.756;2023-10-09T07:58:40;97590.00;;;3.50;85.12
42671;BME280;28283;55.426;37.756;2023-10-09T08:03:49;97612.09;;;3.57;84.81
42671;BME280;28283;55.426;37.756;2023-10-09T08:08:57;97585.94;;;3.68;84.38
42671;BME280;28283;55.426;37.756;2023-10-09T08:14:13;97625.38;;;3.64;84.53
42671;BME280;28283;55.426;37.756;2023-10-09T08:19:32;97628.06;;;3.71;84.55
42671;BME280;28283;55.426;37.756;2023-10-09T08:24:33;97640.34;;;3.78;84.53
42671;BME280;28283;55.426;37.756;2023-10-09T08:29:41;97622.59;;;3.79;84.35
42671;BME280;28283;55.426;37.756;2023-10-09T08:34:47;97627.69;;;3.74;83.58
42671;BME280;28283;55.426;37.756;2023-10-09T08:39:53;97638.53;;;3.86;82.52
42671;BME280;28283;55.426;37.756;2023-10-09T08:44:55;97669.81;;;3.83;82.62
42671;BME280;28283;55.426;37.756;2023-10-09T08:50:00;97670.50;;;3.99;81.15
42671;BME280;28283;55.426;37.756;2023-10-09T08:55:01;97658.00;;;3.99;80.57
42671;BME280;28283;55.426;37.756;2023-10-09T09:00:02;97706.72;;;4.07;81.14
42671;BME280;28283;55.426;37.756;2023-10-09T09:05:16;97696.53;;;4.17;80.45
42671;BME280;28283;55.426;37.756;2023-10-09T09:10:17;97649.50;;;4.31;78.86
42671;BME280;28283;55.426;37.756;2023-10-09T09:15:19;97694.28;;;4.34;78.85
42671;BME280;28283;55.426;37.756;2023-10-09T09:20:24;97701.66;;;4.32;78.80
42671;BME280;28283;55.426;37.756;2023-10-09T09:25:41;97683.28;;;4.44;79.08
42671;BME280;28283;55.426;37.756;2023-10-09T09:30:45;97712.13;;;4.47;77.79
42671;BME280;28283;55.426;37.756;2023-10-09T09:35:57;97677.75;;;4.52;78.60
42671;BME280;28283;55.426;37.756;2023-10-09T09:40:58;97724.63;;;4.53;78.74
42671;BME280;28283;55.426;37.756;2023-10-09T09:46:02;97726.06;;;4.49;78.66
42671;BME280;28283;55.426;37.756;2023-10-09T09:51:09;97716.81;;;4.45;79.34
42671;BME280;28283;55.426;37.756;2023-10-09T10:23:19;97739.22;;;4.90;76.85
42671;BME280;28283;55.426;37.756;2023-10-09T10:28:24;97772.56;;;4.86;78.39
42671;BME280;28283;55.426;37.756;2023-10-09T10:39:10;97761.94;;;5.00;75.94
42671;BME280;28283;55.426;37.756;2023-10-09T10:44:26;97771.38;;;4.95;75.30
42671;BME280;28283;55.426;37.756;2023-10-09T10:49:43;97756.81;;;4.91;75.10
42671;BME280;28283;55.426;37.756;2023-10-09T10:54:43;97791.22;;;4.86;74.58
42671;BME280;28283;55.426;37.756;2023-10-09T10:59:44;97805.56;;;4.85;75.50
42671;BME280;28283;55.426;37.756;2023-10-09T11:04:48;97778.53;;;4.88;75.60
42671;BME280;28283;55.426;37.756;2023-10-09T11:10:14;97818.44;;;4.82;75.68
42671;BME280;28283;55.426;37.756;2023-10-09T11:15:31;97835.84;;;4.77;76.87
42671;BME280;28283;55.426;37.756;2023-10-09T11:20:44;97820.53;;;5.00;74.88
42671;BME280;28283;55.426;37.756;2023-10-09T11:26:17;97832.19;;;4.98;73.99
42671;BME280;28283;55.426;37.756;2023-10-09T11:31:31;97846.72;;;4.89;74.76
42671;BME280;28283;55.426;37.756;2023-10-09T11:36:34;97838.94;;;4.94;73.97
42671;BME280;28283;55.426;37.756;2023-10-09T11:41:39;97832.41;;;5.04;73.25
42671;BME280;28283;55.426;37.756;2023-10-09T11:46:41;97856.16;;;4.98;74.50
42671;BME280;28283;55.426;37.756;2023-10-09T11:52:05;97849.81;;;5.00;76.34
42671;BME280;28283;55.426;37.756;2023-10-09T11:57:14;97864.13;;;4.85;78.09
42671;BME280;28283;55.426;37.756;2023-10-09T12:02:17;97863.69;;;4.75;78.99
42671;BME280;28283;55.426;37.756;2023-10-09T12:07:18;97875.53;;;4.66;78.84
42671;BME280;28283;55.426;37.756;2023-10-09T12:12:20;97887.03;;;4.73;78.99
42671;BME280;28283;55.426;37.756;2023-10-09T12:17:26;97863.88;;;4.67;78.85
42671;BME280;28283;55.426;37.756;2023-10-09T12:22:26;97909.91;;;4.61;78.95
42671;BME280;28283;55.426;37.756;2023-10-09T12:27:27;97922.13;;;4.48;79.68
42671;BME280;28283;55.426;37.756;2023-10-09T12:32:29;97893.28;;;4.52;80.44
42671;BME280;28283;55.426;37.756;2023-10-09T12:37:29;97915.41;;;4.59;80.02
42671;BME280;28283;55.426;37.756;2023-10-09T12:42:31;97929.09;;;4.49;79.75
42671;BME280;28283;55.426;37.756;2023-10-09T12:47:32;97956.91;;;4.47;80.98
42671;BME280;28283;55.426;37.756;2023-10-09T12:52:33;97987.38;;;4.44;80.58
42671;BME280;28283;55.426;37.756;2023-10-09T12:57:37;97965.25;;;4.37;81.69
42671;BME280;28283;55.426;37.756;2023-10-09T13:02:37;97965.47;;;4.42;82.22
42671;BME280;28283;55.426;37.756;2023-10-09T13:07:43;97929.88;;;4.43;80.91
42671;BME280;28283;55.426;37.756;2023-10-09T13:12:45;97980.59;;;4.35;81.76
42671;BME280;28283;55.426;37.756;2023-10-09T13:17:45;97992.09;;;4.42;81.95
42671;BME280;28283;55.426;37.756;2023-10-09T13:22:46;97996.00;;;4.46;81.51
42671;BME280;28283;55.426;37.756;2023-10-09T13:27:48;97982.34;;;4.56;80.89
42671;BME280;28283;55.426;37.756;2023-10-09T13:32:50;98000.75;;;4.57;80.51
42671;BME280;28283;55.426;37.756;2023-10-09T13:37:51;97982.59;;;4.68;78.58
42671;BME280;28283;55.426;37.756;2023-10-09T13:42:54;98015.50;;;4.53;80.69
42671;BME280;28283;55.426;37.756;2023-10-09T13:47:59;98020.81;;;4.53;80.52
42671;BME280;28283;55.426;37.756;2023-10-09T13:53:04;97992.03;;;4.35;80.85
42671;BME280;28283;55.426;37.756;2023-10-09T13:58:10;98020.81;;;4.25;81.81
42671;BME280;28283;55.426;37.756;2023-10-09T14:03:20;98042.69;;;4.20;82.46
42671;BME280;28283;55.426;37.756;2023-10-09T14:08:23;98049.97;;;4.12;82.83
42671;BME280;28283;55.426;37.756;2023-10-09T14:13:26;98050.34;;;4.09;83.13
42671;BME280;28283;55.426;37.756;2023-10-09T14:18:28;98065.84;;;4.05;83.81
42671;BME280;28283;55.426;37.756;2023-10-09T14:23:30;98050.75;;;4.06;84.23
42671;BME280;28283;55.426;37.756;2023-10-09T14:28:34;98072.94;;;3.98;83.99
42671;BME280;28283;55.426;37.756;2023-10-09T14:33:35;98071.81;;;3.86;85.12
42671;BME280;28283;55.426;37.756;2023-10-09T14:38:36;98091.31;;;3.93;85.05
42671;BME280;28283;55.426;37.756;2023-10-09T14:43:38;98107.25;;;3.93;85.36
42671;BME280;28283;55.426;37.756;2023-10-09T14:48:39;98094.84;;;4.00;85.04
42671;BME280;28283;55.426;37.756;2023-10-09T14:53:41;98086.13;;;4.06;84.00
42671;BME280;28283;55.426;37.756;2023-10-09T14:58:42;98118.84;;;4.07;83.86
42671;BME280;28283;55.426;37.756;2023-10-09T15:03:42;98126.75;;;4.00;83.86
42671;BME280;28283;55.426;37.756;2023-10-09T15:08:43;98139.88;;;4.01;83.92
42671;BME280;28283;55.426;37.756;2023-10-09T15:13:43;98139.38;;;4.13;83.06
42671;BME280;28283;55.426;37.756;2023-10-09T15:18:44;98151.78;;;4.06;83.25
42671;BME280;28283;55.426;37.756;2023-10-09T15:23:44;98147.28;;;4.06;83.34
42671;BME280;28283;55.426;37.756;2023-10-09T15:28:45;98152.25;;;4.09;83.13
42671;BME280;28283;55.426;37.756;2023-10-09T15:33:46;98176.28;;;4.01;83.81
42671;BME280;28283;55.426;37.756;2023-10-09T15:38:47;98172.81;;;4.00;83.87
42671;BME280;28283;55.426;37.756;2023-10-09T15:43:50;98160.78;;;4.05;83.33
42671;BME280;28283;55.426;37.756;2023-10-09T15:48:51;98189.22;;;4.04;83.14
42671;BME280;28283;55.426;37.756;2023-10-09T15:53:53;98206.53;;;4.00;82.72
42671;BME280;28283;55.426;37.756;2023-10-09T15:58:54;98197.91;;;3.98;83.22
42671;BME280;28283;55.426;37.756;2023-10-09T16:03:56;98199.84;;;4.04;83.17
42671;BME280;28283;55.426;37.756;2023-10-09T16:08:56;98163.44;;;4.05;82.97
42671;BME280;28283;55.426;37.756;2023-10-09T16:13:57;98207.72;;;3.97;82.87
42671;BME280;28283;55.426;37.756;2023-10-09T16:18:57;98183.00;;;3.97;82.68
42671;BME280;28283;55.426;37.756;2023-10-09T16:23:58;98215.81;;;3.89;82.92
42671;BME280;28283;55.426;37.756;2023-10-09T16:29:01;98221.88;;;3.83;83.34
42671;BME280;28283;55.426;37.756;2023-10-09T16:34:05;98223.72;;;3.82;83.43
42671;BME280;28283;55.426;37.756;2023-10-09T16:39:07;98246.44;;;3.85;82.64
42671;BME280;28283;55.426;37.756;2023-10-09T16:44:18;98248.81;;;3.80;83.01
42671;BME280;28283;55.426;37.756;2023-10-09T16:49:19;98242.22;;;3.76;83.02
42671;BME280;28283;55.426;37.756;2023-10-09T16:54:25;98252.75;;;3.69;83.74
42671;BME280;28283;55.426;37.756;2023-10-09T16:59:26;98256.78;;;3.80;81.91
42671;BME280;28283;55.426;37.756;2023-10-09T17:04:27;98243.91;;;3.77;82.06
42671;BME280;28283;55.426;37.756;2023-10-09T17:09:29;98257.72;;;3.72;82.21
42671;BME280;28283;55.426;37.756;2023-10-09T17:14:30;98280.72;;;3.80;81.09
42671;BME280;28283;55.426;37.756;2023-10-09T17:19:34;98260.38;;;3.72;81.64
42671;BME280;28283;55.426;37.756;2023-10-09T17:24:38;98244.63;;;3.71;81.78
42671;BME280;28283;55.426;37.756;2023-10-09T17:29:39;98287.25;;;3.77;80.36
42671;BME280;28283;55.426;37.756;2023-10-09T17:34:40;98276.31;;;3.72;81.15
42671;BME280;28283;55.426;37.756;2023-10-09T17:39:40;98301.91;;;3.73;81.03
42671;BME280;28283;55.426;37.756;2023-10-09T17:44:41;98296.22;;;3.76;80.50
42671;BME280;28283;55.426;37.756;2023-10-09T17:55:05;98310.25;;;3.70;80.19
42671;BME280;28283;55.426;37.756;2023-10-09T18:00:13;98315.63;;;3.62;81.10
42671;BME280;28283;55.426;37.756;2023-10-09T18:05:24;98304.75;;;3.72;79.95
42671;BME280;28283;55.426;37.756;2023-10-09T18:10:33;98298.22;;;3.74;79.10
42671;BME280;28283;55.426;37.756;2023-10-09T18:15:34;98307.47;;;3.63;79.16
42671;BME280;28283;55.426;37.756;2023-10-09T18:25:56;98323.41;;;3.49;79.04
42671;BME280;28283;55.426;37.756;2023-10-09T18:30:58;98318.09;;;3.49;78.61
42671;BME280;28283;55.426;37.756;2023-10-09T18:47:20;98327.75;;;3.27;79.43
42671;BME280;28283;55.426;37.756;2023-10-09T18:52:22;98341.75;;;3.20;79.89
42671;BME280;28283;55.426;37.756;2023-10-09T18:57:26;98335.63;;;3.20;79.63
42671;BME280;28283;55.426;37.756;2023-10-09T19:02:27;98346.25;;;3.20;79.42
42671;BME280;28283;55.426;37.756;2023-10-09T19:07:28;98344.22;;;3.22;79.36
42671;BME280;28283;55.426;37.756;2023-10-09T19:12:30;98362.34;;;3.18;79.26
42671;BME280;28283;55.426;37.756;2023-10-09T19:17:32;98360.34;;;3.20;79.04
42671;BME280;28283;55.426;37.756;2023-10-09T19:22:33;98360.34;;;3.20;78.44
42671;BME280;28283;55.426;37.756;2023-10-09T19:27:33;98365.34;;;3.15;79.45
42671;BME280;28283;55.426;37.756;2023-10-09T19:32:33;98367.06;;;3.08;79.48
42671;BME280;28283;55.426;37.756;2023-10-09T19:37:34;98363.81;;;3.21;78.82
42671;BME280;28283;55.426;37.756;2023-10-09T19:42:36;98360.50;;;3.19;79.06
42671;BME280;28283;55.426;37.756;2023-10-09T19:47:48;98367.66;;;3.18;78.34
42671;BME280;28283;55.426;37.756;2023-10-09T19:52:49;98361.63;;;3.24;78.67
42671;BME280;28283;55.426;37.756;2023-10-09T19:57:49;98347.22;;;3.19;78.23
42671;BME280;28283;55.426;37.756;2023-10-09T20:02:51;98367.22;;;3.06;78.92
42671;BME280;28283;55.426;37.756;2023-10-09T20:07:53;98373.66;;;3.12;78.32
42671;BME280;28283;55.426;37.756;2023-10-09T20:12:54;98344.47;;;3.12;78.31
42671;BME280;28283;55.426;37.756;2023-10-09T20:17:54;98380.34;;;3.08;78.79
42671;BME280;28283;55.426;37.756;2023-10-09T20:22:55;98354.25;;;3.12;78.61
42671;BME280;28283;55.426;37.756;2023-10-09T20:27:56;98367.63;;;3.03;79.02
42671;BME280;28283;55.426;37.756;2023-10-09T21:59:59;98388.78;;;2.57;80.29
42671;BME280;28283;55.426;37.756;2023-10-09T22:05:01;98403.56;;;2.52;80.37
42671;BME280;28283;55.426;37.756;2023-10-09T22:10:09;98406.88;;;2.54;80.58
42671;BME280;28283;55.426;37.756;2023-10-09T22:15:15;98403.19;;;2.55;80.01
42671;BME280;28283;55.426;37.756;2023-10-09T22:20:16;98425.78;;;2.51;79.84
42671;BME280;28283;55.426;37.756;2023-10-09T22:25:19;98413.16;;;2.53;80.06
42671;BME280;28283;55.426;37.756;2023-10-09T22:30:21;98424.41;;;2.55;79.54
42671;BME280;28283;55.426;37.756;2023-10-09T22:35:34;98434.69;;;2.58;78.81
42671;BME280;28283;55.426;37.756;2023-10-09T22:40:44;98429.91;;;2.53;78.94
42671;BME280;28283;55.426;37.756;2023-10-09T22:45:49;98428.91;;;2.54;78.83
42671;BME280;28283;55.426;37.756;2023-10-09T22:50:51;98435.09;;;2.38;79.78
42671;BME280;28283;55.426;37.756;2023-10-09T22:55:58;98439.09;;;2.42;79.21
42671;BME280;28283;55.426;37.756;2023-10-09T23:01:01;98427.78;;;2.48;79.18
42671;BME280;28283;55.426;37.756;2023-10-09T23:06:03;98442.72;;;2.33;79.26
42671;BME280;28283;55.426;37.756;2023-10-09T23:11:30;98433.41;;;2.54;78.47
42671;BME280;28283;55.426;37.756;2023-10-09T23:16:32;98437.19;;;2.51;78.38
42671;BME280;28283;55.426;37.756;2023-10-09T23:21:49;98437.41;;;2.50;78.62
42671;BME280;28283;55.426;37.756;2023-10-09T23:27:08;98440.88;;;2.50;78.26
42671;BME280;28283;55.426;37.756;2023-10-09T23:32:25;98440.41;;;2.38;78.54
42671;BME280;28283;55.426;37.756;2023-10-09T23:37:32;98456.97;;;2.40;79.02
42671;BME280;28283;55.426;37.756;2023-10-09T23:42:58;98434.94;;;2.40;78.81
42671;BME280;28283;55.426;37.756;2023-10-09T23:47:59;98415.53;;;2.39;78.30
42671;BME280;28283;55.426;37.756;2023-10-09T23:53:00;98428.66;;;2.33;78.58
42671;BME280;28283;55.426;37.756;2023-10-09T23:58:02;98451.06;;;2.30;78.72
